Time;durP1;ratioP1;P1;durP2;ratioP2;P2;SDS_P1;SDS_P2;PMS_P1;PMS_P2;Temp;Humidity;BMP_temperature;BMP_pressure;BME280_temperature;BME280_humidity;BME280_pressure;Samples;Min_cycle;Max_cycle;Signal;HPM_P1;HPM_P2
2022/10/04 00:01:42;;;;;;;10.13;6.57;;;13.60;1.00;;;;;;5027413;28;20218;-52
2022/10/04 00:04:26;;;;;;;8.73;6.63;;;13.60;1.00;;;;;;5034836;28;20612;-54
2022/10/04 00:07:00;;;;;;;9.07;7.03;;;13.50;1.00;;;;;;5027704;28;20211;-54
2022/10/04 00:09:53;;;;;;;9.97;6.07;;;13.40;1.00;;;;;;5028598;28;20564;-52
2022/10/04 00:12:29;;;;;;;10.03;6.70;;;13.30;99.90;;;;;;5028227;28;20285;-52
2022/10/04 00:15:04;;;;;;;10.53;6.63;;;13.50;50.10;;;;;;5017880;28;20197;-52
2022/10/04 00:17:34;;;;;;;7.77;6.27;;;13.50;1.00;;;;;;5017091;28;20212;-52
2022/10/04 00:20:23;;;;;;;9.87;6.57;;;13.50;1.00;;;;;;5023856;28;20218;-54
2022/10/04 00:23:28;;;;;;;8.77;7.17;;;13.50;1.00;;;;;;5019596;28;20198;-52
2022/10/04 00:26:00;;;;;;;14.43;7.10;;;13.30;1.00;;;;;;5029134;28;20662;-52
2022/10/04 00:28:29;;;;;;;10.60;7.30;;;13.30;1.00;;;;;;5023539;28;20201;-53
2022/10/04 00:31:13;;;;;;;10.83;6.40;;;13.30;1.00;;;;;;5022520;28;20217;-51
2022/10/04 00:33:41;;;;;;;11.20;7.00;;;13.40;1.00;;;;;;5024855;28;20209;-52
2022/10/04 00:36:23;;;;;;;12.07;6.93;;;13.30;1.00;;;;;;5028829;28;20237;-51
2022/10/04 00:39:07;;;;;;;7.53;6.70;;;13.30;1.00;;;;;;5024912;28;20304;-51
2022/10/04 00:41:37;;;;;;;9.43;6.87;;;13.30;1.00;;;;;;5035708;28;20205;-51
2022/10/04 00:44:09;;;;;;;9.77;7.17;;;13.20;1.00;;;;;;5024161;28;20600;-52
2022/10/04 00:46:40;;;;;;;8.17;6.70;;;13.30;1.00;;;;;;5027965;28;20251;-51
2022/10/04 00:49:10;;;;;;;13.23;6.93;;;13.30;1.00;;;;;;5020998;28;20197;-52
2022/10/04 00:51:57;;;;;;;10.23;7.30;;;13.20;1.00;;;;;;5029831;28;20205;-51
2022/10/04 00:54:33;;;;;;;10.10;6.97;;;13.20;1.00;;;;;;5025251;28;20220;-52
2022/10/04 00:57:31;;;;;;;10.47;7.37;;;13.10;1.00;;;;;;5030026;28;20671;-49
2022/10/04 01:00:17;;;;;;;10.27;7.80;;;13.10;40.60;;;;;;5018910;28;20230;-52
2022/10/04 01:02:51;;;;;;;10.97;7.43;;;13.10;61.90;;;;;;5014851;28;20664;-54
2022/10/04 01:05:22;;;;;;;13.13;7.03;;;13.10;99.90;;;;;;5023431;28;20940;-52
2022/10/04 01:08:01;;;;;;;12.80;7.83;;;13.10;99.90;;;;;;5027797;28;20296;-51
2022/10/04 01:10:32;;;;;;;13.80;7.53;;;13.10;99.90;;;;;;5031170;28;20290;-52
2022/10/04 01:13:05;;;;;;;12.07;7.60;;;13.10;1.00;;;;;;5025660;28;20706;-52
2022/10/04 01:16:00;;;;;;;10.60;7.67;;;13.10;11.60;;;;;;5025814;28;20727;-52
2022/10/04 01:18:30;;;;;;;14.87;8.73;;;13.00;1.00;;;;;;5019948;28;20338;-51
2022/10/04 01:21:06;;;;;;;12.47;6.97;;;13.00;1.00;;;;;;5017960;28;20645;-49
2022/10/04 01:23:49;;;;;;;11.27;7.33;;;13.00;56.90;;;;;;5030352;28;20213;-51
2022/10/04 01:26:28;;;;;;;9.73;7.80;;;13.00;99.90;;;;;;5042546;28;20211;-51
2022/10/04 01:29:18;;;;;;;9.90;7.80;;;12.90;99.90;;;;;;5031974;28;20245;-52
2022/10/04 01:31:48;;;;;;;7.93;6.73;;;13.00;99.90;;;;;;5033918;28;20204;-52
2022/10/04 01:34:23;;;;;;;11.57;7.10;;;13.10;99.90;;;;;;5019454;28;20208;-52
2022/10/04 01:36:53;;;;;;;9.37;7.07;;;13.00;56.60;;;;;;5021384;28;20626;-52
2022/10/04 01:39:22;;;;;;;10.47;7.60;;;13.10;27.60;;;;;;5027011;28;20693;-52
2022/10/04 01:42:10;;;;;;;12.70;7.50;;;13.10;1.00;;;;;;5030172;28;20202;-51
2022/10/04 01:44:50;;;;;;;11.37;7.83;;;13.10;1.00;;;;;;5028211;28;20204;-52
2022/10/04 01:47:29;;;;;;;11.60;8.90;;;13.10;1.00;;;;;;5027876;28;20201;-51
2022/10/04 01:50:01;;;;;;;9.93;7.13;;;13.10;1.00;;;;;;5019008;28;20302;-52
2022/10/04 01:52:40;;;;;;;9.97;7.33;;;13.00;1.00;;;;;;5023883;28;20199;-51
2022/10/04 01:55:13;;;;;;;12.63;8.33;;;13.00;1.00;;;;;;5031193;28;20267;-52
2022/10/04 01:57:51;;;;;;;9.43;7.80;;;13.00;1.00;;;;;;5031080;28;20248;-51
2022/10/04 02:00:21;;;;;;;11.93;7.70;;;12.90;1.00;;;;;;5031173;28;20192;-52
2022/10/04 02:02:53;;;;;;;9.63;7.43;;;12.90;1.00;;;;;;5021964;28;20221;-51
2022/10/04 02:05:29;;;;;;;9.30;6.97;;;12.90;1.00;;;;;;5016330;28;20193;-53
2022/10/04 02:08:02;;;;;;;14.13;7.67;;;12.80;1.00;;;;;;5017104;28;20239;-51
2022/10/04 02:10:32;;;;;;;12.50;7.83;;;12.80;1.00;;;;;;5023273;28;20230;-52
2022/10/04 02:13:00;;;;;;;11.63;7.67;;;12.80;1.00;;;;;;5033094;28;20196;-51
2022/10/04 02:15:28;;;;;;;10.37;7.97;;;12.90;1.00;;;;;;5022670;28;20216;-53
2022/10/04 02:17:56;;;;;;;11.77;8.03;;;12.80;1.00;;;;;;5026097;28;20216;-52
2022/10/04 02:20:25;;;;;;;8.37;7.40;;;12.80;1.00;;;;;;5024955;28;20579;-51
2022/10/04 02:22:58;;;;;;;13.97;7.97;;;12.70;1.00;;;;;;5030800;28;20201;-52
2022/10/04 02:25:25;;;;;;;11.10;7.93;;;12.70;1.00;;;;;;5022958;28;20193;-54
2022/10/04 02:27:53;;;;;;;11.30;7.40;;;12.80;1.00;;;;;;5027147;28;20495;-52
2022/10/04 02:30:20;;;;;;;13.17;7.90;;;12.70;1.00;;;;;;5028283;28;20205;-52
2022/10/04 02:32:56;;;;;;;12.03;7.77;;;12.70;1.00;;;;;;5030624;28;20208;-54
2022/10/04 02:35:34;;;;;;;15.53;7.07;;;12.60;1.00;;;;;;5024767;28;20302;-53
2022/10/04 02:38:22;;;;;;;14.23;7.10;;;12.60;1.00;;;;;;5022619;28;20215;-54
2022/10/04 02:40:56;;;;;;;11.43;7.50;;;12.60;1.00;;;;;;5018979;28;20206;-52
2022/10/04 02:43:31;;;;;;;9.70;6.57;;;12.50;1.00;;;;;;5041408;28;20201;-51
2022/10/04 02:46:16;;;;;;;8.43;6.67;;;12.50;1.00;;;;;;5022487;28;20291;-52
2022/10/04 02:48:47;;;;;;;13.07;7.70;;;12.50;1.00;;;;;;5020398;28;20287;-51
2022/10/04 02:51:19;;;;;;;8.33;6.83;;;12.50;1.00;;;;;;5021795;28;20319;-56
2022/10/04 02:53:56;;;;;;;9.83;6.97;;;12.50;1.00;;;;;;5023505;28;20670;-53
2022/10/04 02:56:29;;;;;;;11.30;6.70;;;12.40;1.00;;;;;;5021781;28;20294;-53
2022/10/04 02:59:01;;;;;;;12.70;6.80;;;12.40;1.00;;;;;;5022107;28;20456;-53
2022/10/04 03:01:58;;;;;;;10.30;7.60;;;12.40;1.00;;;;;;5022266;28;20219;-52
2022/10/04 03:04:28;;;;;;;11.43;6.93;;;12.30;1.00;;;;;;5017828;28;20231;-52
2022/10/04 03:06:58;;;;;;;11.90;7.13;;;12.20;1.00;;;;;;5014881;28;20659;-52
2022/10/04 03:09:26;;;;;;;10.03;8.00;;;12.30;1.00;;;;;;5023850;28;20205;-52
2022/10/04 03:11:56;;;;;;;11.37;6.77;;;12.30;1.00;;;;;;5021768;28;20250;-53
2022/10/04 03:14:26;;;;;;;10.27;6.67;;;12.30;1.00;;;;;;5022421;28;20212;-51
2022/10/04 03:16:57;;;;;;;10.93;7.27;;;12.20;1.00;;;;;;5017704;28;20598;-52
2022/10/04 03:19:26;;;;;;;9.23;7.27;;;12.20;1.00;;;;;;5014568;28;20814;-52
2022/10/04 03:22:01;;;;;;;10.43;7.70;;;12.10;1.00;;;;;;5015557;28;20652;-51
2022/10/04 03:24:31;;;;;;;10.80;7.00;;;12.20;1.00;;;;;;5018083;28;20205;-53
2022/10/04 03:27:01;;;;;;;11.17;7.57;;;12.10;1.00;;;;;;5028656;28;20197;-51
2022/10/04 03:29:31;;;;;;;13.87;8.13;;;12.10;1.00;;;;;;5014307;28;20204;-52
2022/10/04 03:32:01;;;;;;;9.07;7.17;;;12.10;1.00;;;;;;5018756;28;20218;-52
2022/10/04 03:34:37;;;;;;;11.70;6.90;;;12.00;1.00;;;;;;5023991;28;20210;-53
2022/10/04 03:37:13;;;;;;;11.33;7.77;;;12.00;6.20;;;;;;5023978;28;20200;-52
2022/10/04 03:39:44;;;;;;;9.57;7.17;;;12.00;1.00;;;;;;5025335;28;20226;-53
2022/10/04 03:42:14;;;;;;;10.03;7.27;;;12.00;1.00;;;;;;5028527;28;20197;-52
2022/10/04 03:44:44;;;;;;;11.43;7.53;;;12.00;1.00;;;;;;5017938;28;20197;-52
2022/10/04 03:47:16;;;;;;;10.83;7.47;;;11.90;1.00;;;;;;5017759;28;20217;-52
2022/10/04 03:49:44;;;;;;;14.07;7.87;;;11.90;13.10;;;;;;5020694;28;20217;-51
2022/10/04 03:52:24;;;;;;;13.43;7.77;;;11.80;43.90;;;;;;5012862;28;20204;-50
2022/10/04 03:54:53;;;;;;;11.30;7.47;;;11.80;99.90;;;;;;5017074;28;20236;-51
2022/10/04 03:57:21;;;;;;;11.90;7.30;;;11.90;99.90;;;;;;5015424;28;20207;-52
2022/10/04 03:59:49;;;;;;;10.90;7.03;;;11.90;62.70;;;;;;5019853;28;20690;-52
2022/10/04 04:02:25;;;;;;;9.57;7.23;;;11.80;91.60;;;;;;5016505;28;20239;-51
2022/10/04 04:05:04;;;;;;;10.87;7.37;;;11.90;99.90;;;;;;5032392;28;20203;-52
2022/10/04 04:07:39;;;;;;;11.27;8.00;;;11.80;99.90;;;;;;5016279;28;20204;-53
2022/10/04 04:10:21;;;;;;;12.47;8.17;;;11.80;99.90;;;;;;5023526;28;20199;-54
2022/10/04 04:13:17;;;;;;;11.10;7.83;;;11.80;99.90;;;;;;5019787;28;20204;-50
2022/10/04 04:15:45;;;;;;;16.23;7.83;;;11.70;99.90;;;;;;5031271;28;20215;-53
2022/10/04 04:18:27;;;;;;;12.60;8.40;;;11.80;99.90;;;;;;5022240;28;20629;-54
2022/10/04 04:20:58;;;;;;;14.77;8.33;;;11.70;99.90;;;;;;5021316;28;20207;-52
2022/10/04 04:23:31;;;;;;;12.77;8.50;;;11.80;99.90;;;;;;5013926;28;20652;-53
2022/10/04 04:26:22;;;;;;;13.90;7.93;;;11.80;99.90;;;;;;5029427;28;20875;-52
2022/10/04 04:29:14;;;;;;;12.23;7.73;;;11.70;99.90;;;;;;5025385;28;20223;-53
2022/10/04 04:31:59;;;;;;;14.83;8.27;;;11.80;99.90;;;;;;5025822;28;20211;-52
2022/10/04 04:34:29;;;;;;;11.43;8.67;;;11.80;99.90;;;;;;5023424;28;20664;-51
2022/10/04 04:37:02;;;;;;;13.03;8.70;;;11.80;99.90;;;;;;5021073;28;20578;-54
2022/10/04 04:39:35;;;;;;;13.23;8.63;;;11.70;99.90;;;;;;5026542;28;20248;-53
2022/10/04 04:42:05;;;;;;;11.00;8.07;;;11.60;99.90;;;;;;5031114;28;20209;-53
2022/10/04 04:44:32;;;;;;;9.90;8.43;;;11.70;99.90;;;;;;5021177;28;20667;-53
2022/10/04 04:46:59;;;;;;;11.37;8.37;;;11.70;99.90;;;;;;5027086;28;20666;-52
2022/10/04 04:49:28;;;;;;;16.60;10.27;;;11.70;99.90;;;;;;5026130;28;20263;-53
2022/10/04 04:51:56;;;;;;;10.97;8.50;;;11.80;99.90;;;;;;5024264;28;20212;-53
2022/10/04 04:54:26;;;;;;;12.57;8.87;;;11.70;99.90;;;;;;5025815;28;20286;-52
2022/10/04 04:56:54;;;;;;;13.27;8.43;;;11.50;99.90;;;;;;5016965;28;20202;-52
2022/10/04 04:59:22;;;;;;;11.77;8.27;;;11.50;99.90;;;;;;5022631;28;20218;-52
2022/10/04 05:01:49;;;;;;;12.07;8.17;;;11.50;99.90;;;;;;5029682;28;20222;-51
2022/10/04 05:04:18;;;;;;;11.93;8.10;;;11.50;99.90;;;;;;5024692;28;20562;-52
2022/10/04 05:07:03;;;;;;;11.30;8.67;;;11.60;99.90;;;;;;5018034;28;20198;-52
2022/10/04 05:09:36;;;;;;;11.17;8.63;;;11.70;99.90;;;;;;5029090;28;20205;-52
2022/10/04 05:12:26;;;;;;;13.83;8.43;;;11.60;87.00;;;;;;5025123;28;20201;-53
2022/10/04 05:14:55;;;;;;;13.27;7.40;;;11.60;99.90;;;;;;5023513;28;20204;-54
2022/10/04 05:17:25;;;;;;;12.40;8.27;;;11.60;51.20;;;;;;5020309;28;20207;-52
2022/10/04 05:19:56;;;;;;;13.33;8.40;;;11.40;23.80;;;;;;5028178;28;20669;-52
2022/10/04 05:22:25;;;;;;;15.80;8.70;;;11.40;99.90;;;;;;5018759;28;20483;-52
2022/10/04 05:24:55;;;;;;;13.27;8.50;;;11.40;99.90;;;;;;4663678;28;9999869;-52
2022/10/04 05:27:39;;;;;;;12.33;8.47;;;11.40;99.90;;;;;;5008648;28;20240;-51
2022/10/04 05:30:26;;;;;;;11.73;8.50;;;11.40;99.90;;;;;;5017039;28;20541;-51
2022/10/04 05:33:16;;;;;;;13.00;8.10;;;11.50;99.90;;;;;;5024897;28;20195;-51
2022/10/04 05:36:08;;;;;;;15.03;8.20;;;11.50;99.90;;;;;;5020810;28;20551;-51
2022/10/04 05:38:50;;;;;;;11.97;8.57;;;11.50;86.10;;;;;;5021547;28;20216;-52
2022/10/04 05:41:35;;;;;;;12.20;8.20;;;11.50;18.50;;;;;;5024649;28;20195;-50
2022/10/04 05:44:24;;;;;;;13.87;8.63;;;11.50;1.00;;;;;;5024638;28;20203;-51
2022/10/04 05:47:05;;;;;;;12.93;8.17;;;11.50;98.50;;;;;;5021046;28;20237;-52
2022/10/04 05:49:43;;;;;;;13.17;7.60;;;11.50;1.00;;;;;;5025772;28;20208;-52
2022/10/04 05:52:26;;;;;;;19.20;9.63;;;11.30;1.00;;;;;;5020038;28;20214;-51
2022/10/04 05:55:14;;;;;;;13.83;8.83;;;11.40;99.90;;;;;;5022901;28;20325;-52
2022/10/04 05:57:56;;;;;;;10.90;7.53;;;11.40;99.90;;;;;;5022354;28;20277;-52
2022/10/04 06:01:02;;;;;;;12.43;7.77;;;11.50;99.90;;;;;;5022361;28;20213;-52
2022/10/04 06:03:47;;;;;;;11.63;7.90;;;11.50;99.90;;;;;;5026748;28;20205;-52
2022/10/04 06:06:25;;;;;;;10.90;8.43;;;11.20;22.20;;;;;;5027927;28;20216;-52
2022/10/04 06:09:12;;;;;;;11.43;8.17;;;11.30;99.90;;;;;;5029466;28;20195;-53
2022/10/04 06:11:54;;;;;;;9.77;7.87;;;11.40;99.90;;;;;;5029568;28;20210;-52
2022/10/04 06:14:55;;;;;;;14.13;8.60;;;11.40;99.90;;;;;;5030502;28;20198;-51
2022/10/04 06:17:26;;;;;;;15.03;8.70;;;11.40;99.90;;;;;;5028320;28;20198;-50
2022/10/04 06:20:14;;;;;;;13.43;8.87;;;11.20;99.90;;;;;;5030026;28;20223;-51
2022/10/04 06:22:46;;;;;;;13.37;9.17;;;11.30;99.90;;;;;;5028786;28;20189;-52
2022/10/04 06:25:23;;;;;;;13.70;9.00;;;11.30;99.90;;;;;;5029930;28;20197;-53
2022/10/04 06:27:58;;;;;;;18.00;9.07;;;11.20;99.90;;;;;;5027102;28;20205;-53
2022/10/04 06:30:28;;;;;;;14.17;9.17;;;11.30;99.90;;;;;;5031856;28;20205;-53
2022/10/04 06:33:12;;;;;;;16.20;9.03;;;11.30;99.90;;;;;;5030898;28;20213;-51
2022/10/04 06:36:14;;;;;;;14.20;8.73;;;11.40;99.90;;;;;;5031876;28;20210;-51
2022/10/04 06:39:02;;;;;;;13.33;7.70;;;11.40;99.90;;;;;;5027788;28;20209;-52
2022/10/04 06:41:58;;;;;;;15.73;9.27;;;11.40;99.90;;;;;;5019565;28;20344;-51
2022/10/04 06:44:38;;;;;;;15.40;9.53;;;11.40;99.90;;;;;;5016425;28;20295;-52
2022/10/04 06:47:31;;;;;;;15.23;9.00;;;11.40;99.90;;;;;;5016674;28;20655;-51
2022/10/04 06:50:25;;;;;;;15.07;8.23;;;11.50;99.90;;;;;;5020052;28;20207;-51
2022/10/04 06:53:10;;;;;;;17.20;9.57;;;11.40;30.60;;;;;;5029319;28;20205;-52
2022/10/04 06:56:04;;;;;;;12.90;8.07;;;11.50;99.90;;;;;;5017693;28;20242;-51
2022/10/04 06:58:32;;;;;;;13.07;8.50;;;11.50;63.00;;;;;;5013779;28;20564;-51
2022/10/04 07:01:22;;;;;;;15.13;8.77;;;11.50;98.20;;;;;;5017249;28;20222;-53
2022/10/04 07:04:23;;;;;;;14.23;8.37;;;11.50;4.60;;;;;;5024682;28;20264;-53
2022/10/04 07:07:22;;;;;;;16.57;8.10;;;11.50;74.10;;;;;;5019731;28;20195;-52
2022/10/04 07:10:11;;;;;;;9.37;7.30;;;11.50;1.00;;;;;;5016099;28;20206;-49
2022/10/04 07:12:42;;;;;;;10.97;7.30;;;11.60;1.00;;;;;;5031348;28;20204;-52
2022/10/04 07:15:20;;;;;;;10.87;7.87;;;11.50;1.00;;;;;;5025187;28;20293;-53
2022/10/04 07:17:49;;;;;;;12.10;6.83;;;11.40;1.00;;;;;;5027221;28;20210;-52
2022/10/04 07:20:24;;;;;;;14.77;8.00;;;11.50;8.40;;;;;;5025287;28;20675;-52
2022/10/04 07:22:56;;;;;;;10.13;6.93;;;11.70;1.00;;;;;;5025501;28;20202;-52
2022/10/04 07:25:29;;;;;;;11.97;6.87;;;11.60;1.00;;;;;;5017202;28;20221;-53
2022/10/04 07:31:05;;;;;;;12.07;6.90;;;11.80;1.00;;;;;;5013395;28;20201;-53
2022/10/04 07:33:40;;;;;;;14.57;6.97;;;11.70;1.00;;;;;;5018762;28;20199;-53
2022/10/04 07:36:14;;;;;;;9.70;6.80;;;11.80;1.00;;;;;;5020458;28;20199;-52
2022/10/04 07:38:54;;;;;;;10.67;6.27;;;11.90;44.40;;;;;;5026630;28;20219;-51
2022/10/04 07:41:35;;;;;;;18.13;6.70;;;11.90;1.00;;;;;;5016318;28;20558;-52
2022/10/04 07:44:19;;;;;;;9.83;6.60;;;12.00;1.00;;;;;;5018139;28;20201;-52
2022/10/04 07:47:18;;;;;;;7.60;6.00;;;12.20;99.90;;;;;;5021163;28;20222;-51
2022/10/04 07:49:48;;;;;;;13.50;6.60;;;12.20;88.70;;;;;;5021400;28;20297;-53
2022/10/04 07:52:29;;;;;;;9.67;5.70;;;12.50;1.00;;;;;;5017992;28;20544;-52
2022/10/04 07:55:18;;;;;;;9.70;6.17;;;12.60;99.90;;;;;;5019506;28;20257;-52
2022/10/04 07:58:22;;;;;;;10.57;5.33;;;12.60;1.00;;;;;;5020053;28;20203;-52
2022/10/04 08:00:56;;;;;;;11.47;5.90;;;12.70;99.90;;;;;;5014270;28;20208;-51
2022/10/04 08:04:00;;;;;;;8.97;6.10;;;13.00;99.90;;;;;;5024930;28;20582;-53
2022/10/04 08:06:35;;;;;;;9.80;6.97;;;13.20;1.00;;;;;;5014777;28;20532;-52
2022/10/04 08:09:30;;;;;;;9.90;5.80;;;13.50;99.90;;;;;;5023175;28;20213;-52
2022/10/04 08:12:16;;;;;;;14.43;6.10;;;13.80;1.00;;;;;;5018449;28;20228;-52
2022/10/04 08:15:13;;;;;;;6.50;5.03;;;14.30;1.00;;;;;;5014523;28;20199;-51
2022/10/04 08:18:17;;;;;;;7.20;5.10;;;14.30;1.00;;;;;;5019345;28;20211;-51
2022/10/04 08:20:55;;;;;;;8.87;5.00;;;14.50;1.00;;;;;;5013991;28;20212;-53
2022/10/04 08:23:37;;;;;;;9.17;5.43;;;14.60;1.00;;;;;;5028210;28;20203;-52
2022/10/04 08:26:25;;;;;;;10.60;5.27;;;14.80;82.30;;;;;;5015032;28;20200;-52
2022/10/04 08:32:22;;;;;;;9.30;4.80;;;14.60;99.90;;;;;;5015177;28;20192;-52
2022/10/04 08:35:01;;;;;;;6.20;4.40;;;15.10;1.00;;;;;;5015703;28;20189;-52
2022/10/04 08:38:12;;;;;;;7.67;4.93;;;14.90;99.90;;;;;;5020929;28;20658;-52
2022/10/04 08:40:57;;;;;;;10.63;4.67;;;15.20;29.90;;;;;;5015433;28;20209;-53
2022/10/04 08:43:39;;;;;;;6.73;4.20;;;15.60;1.00;;;;;;5019303;28;20643;-51
2022/10/04 08:46:44;;;;;;;8.37;4.27;;;15.30;1.00;;;;;;5017074;28;20212;-51
2022/10/04 08:49:21;;;;;;;9.77;4.40;;;15.80;1.00;;;;;;5022448;28;20205;-50
2022/10/04 08:52:18;;;;;;;9.60;4.47;;;15.80;99.90;;;;;;5028261;28;20280;-51
2022/10/04 08:55:10;;;;;;;7.53;4.37;;;15.60;1.00;;;;;;5027461;28;20269;-52
2022/10/04 08:57:48;;;;;;;8.90;5.17;;;15.50;1.00;;;;;;5023521;28;20653;-51
2022/10/04 09:00:47;;;;;;;7.47;4.67;;;15.40;1.00;;;;;;5015887;28;20579;-52
2022/10/04 09:03:35;;;;;;;9.57;5.37;;;15.10;99.90;;;;;;5017137;28;20212;-52
2022/10/04 09:06:29;;;;;;;10.27;5.23;;;15.10;25.60;;;;;;5025430;28;20204;-50
2022/10/04 09:09:33;;;;;;;8.50;4.67;;;15.00;99.90;;;;;;5029059;28;20205;-52
2022/10/04 09:12:15;;;;;;;8.70;4.83;;;15.20;99.90;;;;;;5017606;28;20241;-52
2022/10/04 09:15:11;;;;;;;9.77;5.33;;;15.40;1.00;;;;;;5020133;28;20210;-52
2022/10/04 09:18:18;;;;;;;8.37;5.47;;;15.40;1.00;;;;;;5018033;28;20258;-52
2022/10/04 09:21:03;;;;;;;13.60;5.33;;;15.30;99.90;;;;;;5025797;28;20234;-51
2022/10/04 09:23:30;;;;;;;7.13;5.20;;;15.60;99.90;;;;;;5023281;28;20217;-52
2022/10/04 09:26:06;;;;;;;8.37;5.23;;;15.40;99.90;;;;;;5012315;28;20296;-53
2022/10/04 09:29:04;;;;;;;8.27;4.73;;;15.40;1.00;;;;;;5028403;28;20210;-51
2022/10/04 09:31:43;;;;;;;9.57;5.37;;;15.50;1.00;;;;;;5024025;28;20193;-51
2022/10/04 09:34:22;;;;;;;10.40;4.67;;;15.40;1.00;;;;;;5026211;28;20693;-51
2022/10/04 09:37:01;;;;;;;10.43;5.47;;;15.30;1.00;;;;;;5027594;28;20210;-51
2022/10/04 09:39:37;;;;;;;10.07;5.37;;;15.50;99.90;;;;;;5029767;28;20221;-52
2022/10/04 09:42:26;;;;;;;7.83;5.40;;;15.60;1.00;;;;;;5021341;28;20237;-52
2022/10/04 09:45:11;;;;;;;9.17;5.10;;;15.50;9.50;;;;;;5020074;28;20207;-52
2022/10/04 09:47:45;;;;;;;8.23;4.77;;;15.80;1.00;;;;;;5020483;28;20206;-52
2022/10/04 09:50:17;;;;;;;7.97;4.10;;;15.80;1.00;;;;;;5010910;28;20197;-53
2022/10/04 09:53:09;;;;;;;8.00;4.70;;;16.10;1.00;;;;;;5019646;28;20237;-51
2022/10/04 09:55:51;;;;;;;6.97;4.23;;;16.10;99.90;;;;;;5012148;28;20242;-52
2022/10/04 09:58:42;;;;;;;7.50;4.57;;;15.80;1.00;;;;;;5019144;28;20643;-52
2022/10/04 10:01:28;;;;;;;7.50;4.43;;;15.90;1.00;;;;;;5020940;28;20572;-52
2022/10/04 10:04:09;;;;;;;6.57;4.43;;;15.90;1.00;;;;;;5022395;28;20237;-52
2022/10/04 10:06:48;;;;;;;6.83;4.03;;;16.00;1.00;;;;;;5013090;28;20209;-52
2022/10/04 10:13:38;;;;;;;10.37;4.67;;;16.10;1.00;;;;;;5023977;28;20198;-52
2022/10/04 10:16:13;;;;;;;7.87;4.53;;;16.00;1.00;;;;;;5017503;28;20721;-52
2022/10/04 10:19:11;;;;;;;10.70;4.63;;;15.90;1.00;;;;;;4967934;28;20686;-51
2022/10/04 10:22:06;;;;;;;8.33;3.97;;;15.90;1.00;;;;;;4968581;28;20251;-52
2022/10/04 10:24:54;;;;;;;5.10;3.90;;;16.10;1.00;;;;;;5009605;28;20218;-52
2022/10/04 10:27:36;;;;;;;9.17;3.60;;;16.10;99.90;;;;;;5015848;28;20208;-51
2022/10/04 10:30:08;;;;;;;9.57;4.30;;;16.40;1.00;;;;;;5018896;28;20221;-53
2022/10/04 10:32:54;;;;;;;6.17;4.13;;;16.30;74.00;;;;;;5020661;28;20285;-52
2022/10/04 10:35:36;;;;;;;8.27;4.30;;;16.30;99.90;;;;;;5026374;28;20209;-52
2022/10/04 10:38:47;;;;;;;7.63;3.87;;;16.40;99.90;;;;;;5026581;28;20194;-52
2022/10/04 10:41:38;;;;;;;5.67;3.80;;;16.50;36.30;;;;;;5019059;28;20214;-51
2022/10/04 10:44:25;;;;;;;10.70;3.67;;;16.70;99.90;;;;;;5023682;28;20219;-51
2022/10/04 10:47:12;;;;;;;7.17;3.80;;;16.80;50.90;;;;;;5024964;28;20633;-52
2022/10/04 10:50:06;;;;;;;6.80;3.93;;;16.90;1.00;;;;;;5023063;28;20706;-52
2022/10/04 10:52:44;;;;;;;6.33;4.57;;;16.60;10.30;;;;;;5016121;28;20640;-51
2022/10/04 10:55:56;;;;;;;10.53;3.67;;;16.40;1.00;;;;;;5013363;28;20251;-53
2022/10/04 10:59:04;;;;;;;10.27;4.10;;;16.50;99.90;;;;;;5025181;28;20286;-52
2022/10/04 11:02:03;;;;;;;8.00;3.73;;;16.50;25.90;;;;;;5016352;28;20238;-52
2022/10/04 11:04:53;;;;;;;6.57;3.87;;;16.80;30.00;;;;;;5028075;28;20571;-50
2022/10/04 11:07:23;;;;;;;8.23;3.80;;;16.90;1.00;;;;;;5027757;28;20683;-53
2022/10/04 11:10:14;;;;;;;6.83;3.27;;;16.90;1.00;;;;;;5018825;28;20199;-52
2022/10/04 11:13:20;;;;;;;6.50;3.10;;;16.90;1.00;;;;;;5027947;28;20230;-53
2022/10/04 11:16:21;;;;;;;10.20;3.93;;;17.00;1.00;;;;;;5020233;28;20291;-52
2022/10/04 11:18:56;;;;;;;8.17;4.50;;;17.20;1.00;;;;;;5027430;28;20204;-53
2022/10/04 11:21:40;;;;;;;5.50;3.17;;;17.30;1.00;;;;;;5018763;28;20311;-52
2022/10/04 11:24:19;;;;;;;6.27;3.13;;;17.60;1.00;;;;;;5022290;28;20202;-52
2022/10/04 11:27:27;;;;;;;6.50;4.47;;;17.60;1.00;;;;;;5019244;28;20200;-52
2022/10/04 11:30:24;;;;;;;6.97;3.50;;;17.80;1.00;;;;;;5042805;28;20214;-52
2022/10/04 11:33:16;;;;;;;8.60;3.30;;;17.90;1.00;;;;;;5047240;28;20290;-51
2022/10/04 11:36:07;;;;;;;6.00;3.50;;;18.10;1.00;;;;;;5018028;28;20217;-52
2022/10/04 11:39:20;;;;;;;10.23;3.80;;;18.40;1.00;;;;;;5013858;28;20215;-53
2022/10/04 11:42:21;;;;;;;5.57;3.23;;;18.40;1.00;;;;;;5020268;28;20226;-51
2022/10/04 11:44:48;;;;;;;8.17;3.37;;;18.20;1.00;;;;;;5019132;28;20291;-51
2022/10/04 11:47:40;;;;;;;6.17;2.90;;;18.40;1.00;;;;;;5020469;28;20547;-52
2022/10/04 11:50:34;;;;;;;7.60;2.40;;;18.30;1.00;;;;;;5022253;28;20200;-52
2022/10/04 11:53:31;;;;;;;5.23;2.70;;;18.30;1.00;;;;;;5030049;28;20204;-52
2022/10/04 11:56:06;;;;;;;6.10;4.00;;;18.20;99.90;;;;;;5019777;28;20698;-52
2022/10/04 11:58:51;;;;;;;4.33;2.47;;;18.10;1.00;;;;;;5012371;28;20211;-53
2022/10/04 12:01:50;;;;;;;5.90;2.70;;;18.10;99.90;;;;;;5022299;28;20243;-52
2022/10/04 12:04:38;;;;;;;6.67;2.60;;;18.00;1.00;;;;;;5023589;28;20636;-52
2022/10/04 12:07:49;;;;;;;4.20;2.53;;;18.00;1.00;;;;;;5022163;28;20610;-52
2022/10/04 12:10:33;;;;;;;7.07;2.70;;;17.80;1.00;;;;;;5022250;28;20209;-52
2022/10/04 12:13:26;;;;;;;6.43;2.80;;;17.80;1.00;;;;;;5017820;28;20546;-52
2022/10/04 12:16:14;;;;;;;4.23;2.77;;;18.20;1.00;;;;;;5020106;28;20209;-52
2022/10/04 12:18:59;;;;;;;4.47;3.67;;;19.00;1.00;;;;;;5015030;28;20208;-52
2022/10/04 12:21:56;;;;;;;6.60;3.43;;;19.50;99.90;;;;;;5015288;28;20210;-52
2022/10/04 12:24:46;;;;;;;4.67;2.97;;;19.90;99.90;;;;;;5018688;28;20194;-52
2022/10/04 12:27:44;;;;;;;6.00;3.00;;;20.20;99.90;;;;;;5023668;28;20709;-52
2022/10/04 12:30:23;;;;;;;5.93;2.63;;;20.30;99.90;;;;;;5012199;28;20678;-54
2022/10/04 12:33:16;;;;;;;8.30;3.10;;;20.40;99.90;;;;;;5027174;28;20206;-52
2022/10/04 12:35:59;;;;;;;4.43;2.87;;;20.30;99.90;;;;;;5011705;28;20230;-52
2022/10/04 12:38:46;;;;;;;5.50;2.77;;;20.70;99.90;;;;;;5016508;28;20560;-52
2022/10/04 12:41:33;;;;;;;4.67;2.70;;;20.70;37.90;;;;;;5025568;28;20220;-52
2022/10/04 12:44:21;;;;;;;6.27;2.40;;;20.40;82.20;;;;;;5015664;28;20211;-52
2022/10/04 12:47:12;;;;;;;4.73;2.40;;;20.60;28.30;;;;;;5015677;28;20204;-52
2022/10/04 12:49:47;;;;;;;5.40;2.40;;;20.60;87.80;;;;;;5017657;28;20203;-53
2022/10/04 12:52:24;;;;;;;6.37;2.60;;;20.50;1.00;;;;;;5027956;28;20555;-52
2022/10/04 12:55:13;;;;;;;4.83;1.90;;;20.30;1.00;;;;;;5014514;28;20197;-52
2022/10/04 12:57:48;;;;;;;4.77;2.67;;;20.40;1.00;;;;;;5014745;28;20198;-52
2022/10/04 13:00:24;;;;;;;4.40;2.30;;;20.50;1.00;;;;;;5017282;28;20204;-52
2022/10/04 13:03:06;;;;;;;6.10;2.63;;;20.00;1.00;;;;;;5016215;28;20287;-52
2022/10/04 13:05:45;;;;;;;3.93;2.43;;;20.30;1.00;;;;;;5020572;28;20295;-52
2022/10/04 13:09:06;;;;;;;3.70;2.40;;;20.40;1.00;;;;;;5027483;28;20263;-53
2022/10/04 13:11:50;;;;;;;5.20;2.47;;;20.40;1.00;;;;;;5000044;28;20233;-53
2022/10/04 13:14:25;;;;;;;6.17;2.57;;;20.50;1.00;;;;;;5003080;28;20219;-52
2022/10/04 13:16:52;;;;;;;3.57;2.03;;;20.60;1.00;;;;;;5003343;28;20205;-53
2022/10/04 13:19:59;;;;;;;6.07;2.30;;;20.70;1.00;;;;;;5000705;28;20248;-53
2022/10/04 13:22:46;;;;;;;7.20;2.50;;;20.40;1.00;;;;;;4998879;28;20316;-53
2022/10/04 13:25:46;;;;;;;4.37;3.13;;;20.60;1.00;;;;;;4991076;28;20600;-52
2022/10/04 13:28:42;;;;;;;2.57;2.37;;;20.40;1.00;;;;;;4996531;28;20672;-52
2022/10/04 13:31:31;;;;;;;5.23;2.60;;;20.60;1.00;;;;;;4983871;28;20212;-53
2022/10/04 13:34:19;;;;;;;4.50;2.13;;;20.40;14.00;;;;;;4990196;28;20205;-52
2022/10/04 13:36:53;;;;;;;6.50;2.60;;;20.50;36.60;;;;;;5003375;28;20193;-51
2022/10/04 13:39:50;;;;;;;4.40;2.40;;;20.60;1.00;;;;;;4997632;28;20299;-52
2022/10/04 13:42:27;;;;;;;4.13;2.37;;;20.50;99.90;;;;;;4999477;28;20244;-52
2022/10/04 13:45:04;;;;;;;5.80;3.13;;;20.60;19.90;;;;;;5003296;28;20208;-55
2022/10/04 13:47:40;;;;;;;3.97;2.60;;;20.60;60.10;;;;;;5022633;28;20228;-52
2022/10/04 13:50:43;;;;;;;4.17;2.80;;;20.50;54.20;;;;;;5017679;28;20573;-52
2022/10/04 13:56:56;;;;;;;7.50;3.00;;;20.20;99.90;;;;;;5015799;28;20240;-50
2022/10/04 13:59:42;;;;;;;5.97;2.80;;;20.50;99.90;;;;;;5025333;28;20212;-53
2022/10/04 14:02:34;;;;;;;4.17;2.70;;;20.00;99.90;;;;;;5024266;28;20242;-52
2022/10/04 14:05:19;;;;;;;7.30;3.00;;;20.00;99.90;;;;;;5035829;28;20201;-53
2022/10/04 14:08:08;;;;;;;7.57;3.07;;;20.00;99.90;;;;;;5030689;28;20210;-52
2022/10/04 14:10:43;;;;;;;5.50;2.90;;;20.10;99.90;;;;;;5019949;28;20661;-53
2022/10/04 14:13:33;;;;;;;4.93;3.10;;;20.20;99.90;;;;;;5013581;28;20564;-53
2022/10/04 14:16:22;;;;;;;4.57;2.60;;;20.50;99.90;;;;;;5020607;28;20573;-53
2022/10/04 14:19:36;;;;;;;5.40;2.57;;;20.20;99.90;;;;;;5029784;28;20217;-53